Time;durP1;ratioP1;P1;durP2;ratioP2;P2;SDS_P1;SDS_P2;PMS_P1;PMS_P2;Temp;Humidity;BMP_temperature;BMP_pressure;BME280_temperature;BME280_humidity;BME280_pressure;Samples;Min_cycle;Max_cycle;Signal;HPM_P1;HPM_P2
2023/04/29 00:03:24;;;;;;;15.50;8.20;;;;;;;11.33;48.46;98844.92;223721;183;138980;-67
2023/04/29 00:08:27;;;;;;;14.50;8.10;;;;;;;11.25;48.63;98845.73;223886;182;137078;-65
2023/04/29 00:13:31;;;;;;;13.10;8.00;;;;;;;11.18;48.88;98848.15;223661;182;147159;-69
2023/04/29 00:18:33;;;;;;;15.70;8.70;;;;;;;11.11;49.48;98847.85;223727;182;138332;-68
2023/04/29 00:23:37;;;;;;;17.10;9.10;;;;;;;11.07;50.22;98847.80;223719;182;137860;-67
2023/04/29 00:28:40;;;;;;;15.20;8.60;;;;;;;11.05;50.28;98844.87;223745;182;146935;-68
2023/04/29 00:33:44;;;;;;;14.80;8.40;;;;;;;10.97;50.52;98843.11;223721;182;138468;-66
2023/04/29 00:38:47;;;;;;;14.90;8.30;;;;;;;10.94;51.15;98838.77;223700;183;137984;-66
2023/04/29 00:43:51;;;;;;;16.70;8.90;;;;;;;10.89;51.16;98838.88;223763;182;146939;-66
2023/04/29 00:48:54;;;;;;;18.20;9.00;;;;;;;10.84;51.57;98836.74;223678;183;138224;-67
2023/04/29 00:53:57;;;;;;;12.60;8.50;;;;;;;10.80;51.90;98836.48;223696;183;136944;-67
2023/04/29 00:59:02;;;;;;;17.90;9.00;;;;;;;10.70;51.81;98836.10;223643;183;147958;-74
2023/04/29 01:04:06;;;;;;;16.50;9.70;;;;;;;10.61;52.02;98837.16;223727;183;139001;-72
2023/04/29 01:09:35;;;;;;;16.60;9.00;;;;;;;10.56;52.27;98842.14;223761;182;136871;-71
2023/04/29 01:14:38;;;;;;;16.40;8.90;;;;;;;10.48;52.83;98841.95;223765;182;147008;-71
2023/04/29 01:25:26;;;;;;;21.70;9.40;;;;;;;10.34;53.35;98832.56;220605;193;666720;-74
2023/04/29 01:31:30;;;;;;;20.10;10.30;;;;;;;10.24;53.46;98834.59;223137;186;137062;-72
2023/04/29 01:36:43;;;;;;;15.80;10.30;;;;;;;10.12;53.93;98838.90;222514;183;144576;-73
2023/04/29 01:41:57;;;;;;;16.60;9.70;;;;;;;9.99;54.11;98838.80;223828;182;138967;-74
2023/04/29 01:47:04;;;;;;;16.30;9.40;;;;;;;9.92;54.29;98839.07;223815;182;136313;-73
2023/04/29 01:52:15;;;;;;;25.60;9.90;;;;;;;9.89;54.71;98836.45;223845;182;143457;-73
2023/04/29 01:57:26;;;;;;;18.60;10.30;;;;;;;9.85;54.90;98834.21;223840;182;138433;-73
2023/04/29 02:02:36;;;;;;;13.90;9.70;;;;;;;9.82;54.98;98832.45;223775;182;136468;-72
2023/04/29 02:07:47;;;;;;;14.90;9.80;;;;;;;9.82;55.20;98832.63;223884;180;144427;-72
2023/04/29 02:12:50;;;;;;;16.10;10.00;;;;;;;9.82;55.58;98829.77;223845;182;139808;-72
2023/04/29 02:17:54;;;;;;;15.40;9.50;;;;;;;9.86;55.69;98829.72;223794;182;136664;-72
2023/04/29 02:22:58;;;;;;;14.60;9.80;;;;;;;9.88;55.76;98827.25;223855;180;145658;-72
2023/04/29 02:28:01;;;;;;;15.90;9.70;;;;;;;9.92;55.72;98827.02;223996;181;141037;-74
2023/04/29 02:33:05;;;;;;;17.10;9.80;;;;;;;9.93;55.85;98827.13;223977;181;136202;-75
2023/04/29 02:38:25;;;;;;;15.50;10.30;;;;;;;9.94;55.64;98831.84;223776;181;148786;-73
2023/04/29 02:43:31;;;;;;;15.20;9.40;;;;;;;9.97;55.51;98827.58;223706;181;138970;-73
2023/04/29 02:48:36;;;;;;;16.70;10.50;;;;;;;10.02;55.48;98829.98;223730;181;136871;-74
2023/04/29 02:53:39;;;;;;;15.50;9.60;;;;;;;10.04;55.42;98827.00;223798;181;145136;-75
2023/04/29 02:58:45;;;;;;;;;;;;;;;10.13;55.65;98821.80;223805;181;138484;-75
2023/04/29 03:03:48;;;;;;;22.00;12.70;;;;;;;10.25;55.71;98814.88;223701;181;129835;-75
2023/04/29 03:09:02;;;;;;;188.80;124.20;;;;;;;10.30;55.59;98811.71;223726;181;145668;-79
2023/04/29 03:14:05;;;;;;;21.20;12.60;;;;;;;10.37;55.36;98809.62;223724;182;139135;-72
2023/04/29 03:19:09;;;;;;;16.40;10.10;;;;;;;10.34;54.85;98811.43;223777;183;136776;-73
2023/04/29 03:24:12;;;;;;;16.80;10.20;;;;;;;10.31;54.94;98813.75;223014;182;145432;-75
2023/04/29 03:29:16;;;;;;;16.40;9.70;;;;;;;10.28;54.98;98810.77;223689;181;139504;-73
2023/04/29 03:34:21;;;;;;;16.60;9.50;;;;;;;10.28;55.48;98809.55;223841;182;136981;-74
2023/04/29 03:39:47;;;;;;;173.60;118.20;;;;;;;10.29;55.70;98809.80;223749;181;145687;-75
2023/04/29 03:44:51;;;;;;;36.10;24.00;;;;;;;10.34;56.03;98808.93;223749;182;138433;-74
2023/04/29 03:49:54;;;;;;;19.00;11.10;;;;;;;10.41;55.95;98812.58;222099;181;137381;-76
2023/04/29 03:54:58;;;;;;;22.90;11.10;;;;;;;10.37;55.87;98810.53;223815;182;145045;-75
2023/04/29 04:00:03;;;;;;;18.40;10.50;;;;;;;10.31;56.11;98810.55;223782;182;137565;-76
2023/04/29 04:05:15;;;;;;;19.40;11.20;;;;;;;10.29;56.48;98809.84;223819;181;137078;-76
2023/04/29 04:10:23;;;;;;;367.50;264.70;;;;;;;10.28;56.53;98808.45;223761;181;145300;-75
2023/04/29 04:15:28;;;;;;;31.10;20.30;;;;;;;10.33;56.78;98811.70;223790;182;138869;-77
2023/04/29 04:20:31;;;;;;;19.40;11.60;;;;;;;10.34;56.57;98813.17;223777;182;137307;-78
2023/04/29 04:25:35;;;;;;;19.20;11.10;;;;;;;10.33;56.45;98813.09;223767;181;145373;-77
2023/04/29 04:30:53;;;;;;;17.60;11.10;;;;;;;10.32;56.73;98810.02;223731;181;138774;-76
2023/04/29 04:35:57;;;;;;;16.40;11.00;;;;;;;10.32;57.16;98807.64;223712;182;137742;-78
2023/04/29 04:41:01;;;;;;;16.30;10.90;;;;;;;10.32;57.61;98801.63;222344;181;147127;-77
2023/04/29 04:46:12;;;;;;;20.70;11.60;;;;;;;10.38;57.87;98800.73;223352;182;138909;-76
2023/04/29 04:51:23;;;;;;;17.30;11.40;;;;;;;10.41;58.12;98803.91;223790;181;136953;-75
2023/04/29 04:56:27;;;;;;;21.70;11.70;;;;;;;10.39;57.93;98800.28;223777;181;145248;-75
2023/04/29 05:01:31;;;;;;;18.80;11.50;;;;;;;10.41;58.33;98801.20;223746;181;139213;-75
2023/04/29 05:06:36;;;;;;;22.30;13.10;;;;;;;10.45;58.31;98803.10;223836;182;136735;-75
2023/04/29 05:11:40;;;;;;;21.00;12.70;;;;;;;10.51;58.29;98802.72;223784;182;145467;-76
2023/04/29 05:16:50;;;;;;;19.50;12.20;;;;;;;10.55;58.27;98801.58;223744;181;138720;-76
2023/04/29 05:21:54;;;;;;;22.40;13.30;;;;;;;10.57;58.74;98803.73;223765;182;137608;-75
2023/04/29 05:26:59;;;;;;;19.80;13.60;;;;;;;10.62;58.80;98807.67;223688;181;145827;-75
2023/04/29 05:32:03;;;;;;;21.20;13.50;;;;;;;10.70;58.95;98806.29;223758;182;138902;-76
2023/04/29 05:37:06;;;;;;;20.00;13.60;;;;;;;10.76;59.19;98807.25;223759;181;137429;-73
2023/04/29 05:42:18;;;;;;;23.40;13.30;;;;;;;10.82;59.14;98806.11;223748;181;145988;-74
2023/04/29 05:47:25;;;;;;;22.90;13.60;;;;;;;10.90;59.52;98811.17;221361;181;138926;-77
2023/04/29 05:52:29;;;;;;;21.70;13.10;;;;;;;10.98;59.58;98811.83;222639;182;136709;-76
2023/04/29 05:57:33;;;;;;;24.80;14.00;;;;;;;11.04;59.93;98811.77;223750;182;145320;-76
2023/04/29 06:02:41;;;;;;;24.60;14.70;;;;;;;11.16;60.37;98806.35;222663;182;138914;-78
2023/04/29 06:08:01;;;;;;;22.40;15.30;;;;;;;11.30;60.63;98805.58;223654;182;140029;-77
2023/04/29 06:13:19;;;;;;;27.10;14.80;;;;;;;11.39;60.28;98804.61;223740;181;145373;-75
2023/04/29 06:18:23;;;;;;;26.60;15.80;;;;;;;11.47;60.54;98808.13;223803;182;139012;-76
2023/04/29 06:23:27;;;;;;;26.70;16.40;;;;;;;11.57;60.59;98798.55;223720;181;136817;-75
2023/04/29 06:28:30;;;;;;;28.80;16.30;;;;;;;11.69;60.43;98802.50;223801;181;145826;-75
2023/04/29 06:33:34;;;;;;;26.80;16.60;;;;;;;11.83;60.32;98801.34;223812;181;138574;-75
2023/04/29 06:38:37;;;;;;;28.10;16.10;;;;;;;11.94;60.25;98795.98;223717;181;137759;-75
2023/04/29 06:44:05;;;;;;;30.70;17.40;;;;;;;12.05;60.09;98788.40;223675;181;146772;-75
2023/04/29 06:49:29;;;;;;;27.90;14.80;;;;;;;12.23;59.92;98792.77;223807;182;140761;-74
2023/04/29 06:54:34;;;;;;;26.30;15.20;;;;;;;12.38;59.94;98792.73;223815;182;136659;-74
2023/04/29 06:59:37;;;;;;;375.20;246.00;;;;;;;12.58;60.24;98792.70;223725;181;145513;-74
2023/04/29 07:04:55;;;;;;;34.30;19.70;;;;;;;12.86;60.10;98787.60;223636;182;150027;-77
2023/04/29 07:10:32;;;;;;;20.40;12.30;;;;;;;13.27;59.60;98781.60;223641;183;138151;-67
2023/04/29 07:15:36;;;;;;;17.50;9.00;;;;;;;13.65;58.97;98782.63;223697;183;145306;-69
2023/04/29 07:20:39;;;;;;;10.60;6.60;;;;;;;14.03;57.26;98783.70;223555;183;138485;-68
2023/04/29 07:25:43;;;;;;;246.80;161.80;;;;;;;14.21;56.33;98785.63;223609;183;137296;-67
2023/04/29 07:30:46;;;;;;;10.80;7.10;;;;;;;14.41;55.54;98779.87;223637;183;145111;-67
2023/04/29 07:35:49;;;;;;;9.40;5.80;;;;;;;14.33;55.31;98776.04;223561;183;138405;-67
2023/04/29 07:40:52;;;;;;;11.10;6.10;;;;;;;14.28;55.08;98774.15;223604;183;140493;-67
2023/04/29 07:45:55;;;;;;;12.10;6.00;;;;;;;14.29;55.04;98774.96;223624;183;145826;-68
2023/04/29 07:50:59;;;;;;;11.00;6.40;;;;;;;14.33;55.20;98771.42;223506;183;138922;-69
2023/04/29 07:56:06;;;;;;;10.90;5.40;;;;;;;14.54;55.56;98766.52;223709;183;137013;-67
2023/04/29 08:01:10;;;;;;;10.50;6.30;;;;;;;14.68;55.19;98772.46;223644;183;146413;-68
2023/04/29 08:06:16;;;;;;;9.60;5.90;;;;;;;14.75;54.10;98771.54;223593;183;139707;-67
2023/04/29 08:11:23;;;;;;;8.70;6.30;;;;;;;14.84;53.92;98773.61;223597;183;136813;-69
2023/04/29 08:16:26;;;;;;;9.40;5.40;;;;;;;15.03;53.98;98774.04;223495;183;145335;-68
2023/04/29 08:21:31;;;;;;;10.50;6.30;;;;;;;15.23;53.42;98777.47;223525;183;140367;-67
2023/04/29 08:26:34;;;;;;;13.00;5.90;;;;;;;15.35;52.99;98775.36;223580;184;138054;-67
2023/04/29 08:31:37;;;;;;;9.10;6.00;;;;;;;15.47;52.51;98773.52;223680;183;145687;-67
2023/04/29 08:36:43;;;;;;;8.70;4.50;;;;;;;15.58;52.27;98766.23;223639;183;139449;-67
2023/04/29 08:41:52;;;;;;;7.50;4.40;;;;;;;15.77;51.93;98762.00;223613;183;137476;-67
2023/04/29 08:46:58;;;;;;;7.10;4.30;;;;;;;15.91;51.30;98762.36;223574;183;145886;-69
2023/04/29 08:52:02;;;;;;;7.40;4.10;;;;;;;16.00;50.60;98756.69;223573;183;138929;-69
2023/04/29 08:57:06;;;;;;;6.40;4.10;;;;;;;16.14;50.56;98755.26;223640;182;137290;-71
2023/04/29 09:02:15;;;;;;;6.80;3.60;;;;;;;16.27;49.58;98754.98;223627;182;152980;-68
2023/04/29 09:07:19;;;;;;;74.00;51.50;;;;;;;16.37;48.50;98756.75;223652;183;140166;-68
2023/04/29 09:12:22;;;;;;;8.00;4.40;;;;;;;16.42;48.12;98752.39;223647;183;137213;-68
2023/04/29 09:17:58;;;;;;;12.00;7.40;;;;;;;16.55;47.79;98749.95;223576;183;145276;-68
2023/04/29 09:23:03;;;;;;;9.40;5.30;;;;;;;16.65;47.34;98751.34;223401;183;138300;-68
2023/04/29 09:28:16;;;;;;;6.80;4.40;;;;;;;16.76;47.29;98749.08;223688;183;140018;-68
2023/04/29 09:33:19;;;;;;;7.90;4.10;;;;;;;16.87;46.59;98753.64;223559;184;146093;-69
2023/04/29 09:38:22;;;;;;;5.70;3.90;;;;;;;16.87;46.49;98748.16;223605;183;138344;-69
2023/04/29 09:43:25;;;;;;;6.40;3.80;;;;;;;16.86;46.33;98746.41;223542;183;137723;-70
2023/04/29 09:48:32;;;;;;;7.80;4.10;;;;;;;16.98;46.92;98739.72;223439;207;145764;-65
2023/04/29 09:53:37;;;;;;;7.90;4.10;;;;;;;17.09;46.27;98734.60;223555;210;140102;-70
2023/04/29 09:58:42;;;;;;;9.60;4.30;;;;;;;17.27;46.28;98730.92;223536;216;137037;-72
2023/04/29 10:03:47;;;;;;;9.40;4.20;;;;;;;17.44;46.50;98728.72;223394;193;147672;-68
2023/04/29 10:08:51;;;;;;;7.10;4.30;;;;;;;17.53;45.20;98725.55;223484;184;140055;-68
2023/04/29 10:13:54;;;;;;;6.60;3.80;;;;;;;17.56;45.25;98725.66;223660;182;138005;-67
2023/04/29 10:19:02;;;;;;;8.50;4.50;;;;;;;17.62;45.17;98721.07;223625;183;146940;-69
2023/04/29 10:24:06;;;;;;;8.90;4.30;;;;;;;17.71;45.67;98717.35;223631;180;140211;-68
2023/04/29 10:29:12;;;;;;;6.80;4.00;;;;;;;17.78;44.70;98716.20;223547;183;137140;-66
2023/04/29 10:34:16;;;;;;;7.60;4.10;;;;;;;17.65;44.33;98718.14;223660;183;148074;-68
2023/04/29 10:39:34;;;;;;;7.60;3.80;;;;;;;17.50;44.84;98717.77;223481;183;138272;-72
2023/04/29 10:45:20;;;;;;;5.90;3.90;;;;;;;17.38;44.79;98712.23;223500;187;137251;-70
2023/04/29 10:50:23;;;;;;;8.40;3.60;;;;;;;17.30;45.08;98709.45;223567;182;147638;-69
2023/04/29 10:55:26;;;;;;;7.70;3.20;;;;;;;17.30;45.07;98706.96;223696;183;138392;-70
2023/04/29 11:00:32;;;;;;;7.50;3.50;;;;;;;17.25;45.07;98706.32;223660;183;137385;-68
2023/04/29 11:05:36;;;;;;;7.50;3.60;;;;;;;17.33;45.03;98704.35;223475;183;146815;-69
2023/04/29 11:10:42;;;;;;;8.00;3.80;;;;;;;17.38;45.32;98700.84;223612;183;138985;-71
2023/04/29 11:15:45;;;;;;;7.50;3.80;;;;;;;17.44;45.13;98704.17;223661;183;136728;-66
2023/04/29 11:21:03;;;;;;;5.30;3.20;;;;;;;17.52;44.69;98693.05;223472;183;147955;-74
2023/04/29 11:26:07;;;;;;;45.60;24.90;;;;;;;17.50;45.49;98691.89;223630;183;138712;-72
2023/04/29 11:31:10;;;;;;;10.40;6.10;;;;;;;17.79;46.30;98694.38;223494;184;137977;-67
2023/04/29 11:36:14;;;;;;;8.10;5.20;;;;;;;17.99;46.16;98704.63;223372;183;147055;-68
2023/04/29 11:41:17;;;;;;;11.60;7.90;;;;;;;17.97;45.13;98705.38;223455;217;140208;-67
2023/04/29 11:46:20;;;;;;;7.10;4.90;;;;;;;17.91;45.52;98699.44;223473;206;136898;-67
2023/04/29 11:51:23;;;;;;;9.50;4.60;;;;;;;18.10;46.01;98691.18;223478;217;147068;-67
2023/04/29 11:56:26;;;;;;;8.80;5.90;;;;;;;18.28;45.81;98688.63;223474;217;138251;-70
2023/04/29 12:01:32;;;;;;;4.90;3.60;;;;;;;18.48;45.58;98686.34;223474;185;138316;-68
2023/04/29 12:06:35;;;;;;;6.80;4.00;;;;;;;18.56;45.40;98686.72;223509;216;147577;-70
2023/04/29 12:11:40;;;;;;;7.20;4.20;;;;;;;18.66;45.42;98684.84;223445;217;138480;-69
2023/04/29 12:16:45;;;;;;;8.90;5.10;;;;;;;18.62;45.20;98685.55;223631;182;137299;-68
2023/04/29 12:21:49;;;;;;;11.90;5.60;;;;;;;18.64;46.17;98685.94;223574;183;149217;-70
2023/04/29 12:26:54;;;;;;;22.30;10.60;;;;;;;18.64;46.37;98686.31;223509;183;138276;-68
2023/04/29 12:31:57;;;;;;;11.70;6.10;;;;;;;18.64;46.47;98681.05;223638;183;138407;-68
2023/04/29 12:37:01;;;;;;;32.60;19.60;;;;;;;18.71;46.48;98678.57;223599;183;147512;-69
2023/04/29 12:42:04;;;;;;;29.70;16.90;;;;;;;18.76;45.84;98673.77;223556;183;139525;-67
2023/04/29 12:47:09;;;;;;;10.70;7.10;;;;;;;18.81;45.71;98669.84;223431;217;137232;-68
2023/04/29 12:52:12;;;;;;;6.50;4.80;;;;;;;18.81;45.62;98667.91;223447;217;147116;-69
2023/04/29 12:57:16;;;;;;;33.80;26.30;;;;;;;18.84;45.74;98662.67;223328;217;139503;-69
2023/04/29 13:02:19;;;;;;;9.10;6.10;;;;;;;18.81;45.77;98663.20;223458;183;137527;-70
2023/04/29 13:07:22;;;;;;;8.90;5.70;;;;;;;18.85;45.65;98657.16;223582;183;147048;-69
2023/04/29 13:12:25;;;;;;;10.40;6.40;;;;;;;18.88;45.82;98660.85;223585;183;141304;-72
2023/04/29 13:17:29;;;;;;;8.10;4.50;;;;;;;18.88;45.39;98664.33;223598;183;137551;-67
2023/04/29 13:22:32;;;;;;;57.80;40.70;;;;;;;18.73;45.83;98663.13;223554;183;147106;-69
2023/04/29 13:27:36;;;;;;;9.50;4.70;;;;;;;18.59;45.79;98663.48;223564;183;138803;-67
2023/04/29 13:32:40;;;;;;;7.60;4.00;;;;;;;18.40;46.22;98663.21;223657;183;137170;-68
2023/04/29 13:37:54;;;;;;;6.20;3.80;;;;;;;18.24;46.38;98662.27;223657;183;147614;-68
2023/04/29 13:42:57;;;;;;;7.10;3.60;;;;;;;18.11;46.61;98658.04;223527;183;139913;-68
2023/04/29 13:48:13;;;;;;;12.00;4.50;;;;;;;18.02;46.74;98652.27;223552;183;136634;-68
2023/04/29 13:53:36;;;;;;;7.20;4.60;;;;;;;17.91;47.12;98654.04;223572;183;147681;-68
2023/04/29 13:58:42;;;;;;;9.20;4.20;;;;;;;17.81;47.26;98657.75;223578;183;138427;-68
2023/04/29 14:04:05;;;;;;;6.20;4.10;;;;;;;17.72;47.74;98657.85;223566;183;137619;-68
2023/04/29 14:09:08;;;;;;;8.40;4.70;;;;;;;17.62;47.86;98655.06;223619;184;147024;-67
2023/04/29 14:14:11;;;;;;;6.90;4.40;;;;;;;17.54;48.29;98655.13;223578;183;139052;-67
2023/04/29 14:19:15;;;;;;;9.10;4.70;;;;;;;17.46;48.53;98657.52;223486;183;138226;-68
2023/04/29 14:24:18;;;;;;;7.70;4.80;;;;;;;17.38;49.06;98660.10;223559;183;147035;-67
2023/04/29 14:29:23;;;;;;;11.80;4.70;;;;;;;17.31;49.81;98659.84;223663;183;138973;-69
2023/04/29 14:34:26;;;;;;;139.80;116.20;;;;;;;17.26;51.08;98657.15;223606;184;137422;-67
2023/04/29 14:39:29;;;;;;;12.20;6.60;;;;;;;17.26;50.96;98657.86;223648;183;147171;-69
2023/04/29 14:44:33;;;;;;;9.20;5.70;;;;;;;17.20;51.46;98656.46;223582;184;138676;-71
2023/04/29 14:49:36;;;;;;;9.60;5.50;;;;;;;17.13;52.27;98654.55;223499;184;137314;-71
2023/04/29 14:54:39;;;;;;;12.00;6.90;;;;;;;17.08;52.82;98656.33;223523;184;148702;-71
2023/04/29 14:59:43;;;;;;;10.20;6.90;;;;;;;17.02;52.86;98657.59;223491;184;138352;-70
2023/04/29 15:04:46;;;;;;;13.10;6.20;;;;;;;16.98;52.58;98658.36;223480;184;140157;-70
2023/04/29 15:09:49;;;;;;;10.20;6.60;;;;;;;16.97;52.39;98667.44;223562;184;147023;-69
2023/04/29 15:14:53;;;;;;;10.20;6.40;;;;;;;16.95;52.29;98664.73;223508;184;138401;-69
2023/04/29 15:19:56;;;;;;;9.50;5.40;;;;;;;16.94;52.18;98665.35;223659;184;137804;-71
2023/04/29 15:25:00;;;;;;;154.00;112.90;;;;;;;16.92;52.76;98669.16;223512;184;146882;-70
2023/04/29 15:30:04;;;;;;;26.20;19.40;;;;;;;17.02;53.28;98671.29;223559;184;139285;-72
2023/04/29 15:35:08;;;;;;;31.60;22.10;;;;;;;17.02;53.65;98673.54;223620;184;138880;-72
2023/04/29 15:40:11;;;;;;;11.50;7.00;;;;;;;16.96;54.09;98671.13;223516;184;149894;-71
2023/04/29 15:45:15;;;;;;;10.50;6.40;;;;;;;16.95;54.40;98667.62;223558;184;138473;-71
2023/04/29 15:50:19;;;;;;;10.10;6.70;;;;;;;17.21;54.29;98663.48;223597;183;136892;-71
2023/04/29 15:55:22;;;;;;;12.00;7.50;;;;;;;17.58;53.02;98660.67;223647;183;147105;-72
2023/04/29 16:00:25;;;;;;;11.20;7.00;;;;;;;17.62;52.17;98656.34;223559;183;138896;-71
2023/04/29 16:05:30;;;;;;;9.80;6.60;;;;;;;17.60;52.02;98654.42;223578;183;137877;-72
2023/04/29 16:10:33;;;;;;;10.00;6.50;;;;;;;17.55;51.98;98663.15;223714;183;147068;-73
2023/04/29 16:15:36;;;;;;;9.90;6.10;;;;;;;17.44;52.47;98658.44;223643;183;138907;-72
2023/04/29 16:20:39;;;;;;;8.60;6.00;;;;;;;17.35;52.83;98656.06;223658;183;139195;-71
2023/04/29 16:25:43;;;;;;;9.90;4.90;;;;;;;17.24;52.87;98661.42;223639;183;146954;-72
2023/04/29 16:30:46;;;;;;;10.60;5.60;;;;;;;17.14;53.23;98664.08;223579;183;138422;-71
2023/04/29 16:35:50;;;;;;;9.60;6.10;;;;;;;17.05;53.50;98664.48;223590;184;138211;-72
2023/04/29 16:40:53;;;;;;;8.80;6.90;;;;;;;16.98;53.85;98668.75;223503;183;147668;-71
2023/04/29 16:45:57;;;;;;;16.70;10.10;;;;;;;16.96;54.27;98672.56;223593;183;139092;-71
2023/04/29 16:51:01;;;;;;;40.10;30.20;;;;;;;16.95;54.35;98674.75;223611;183;137785;-71
2023/04/29 16:56:04;;;;;;;10.80;6.60;;;;;;;16.97;54.31;98680.29;223616;183;148553;-73
2023/04/29 17:01:07;;;;;;;12.90;6.20;;;;;;;16.89;54.32;98684.66;223630;183;138649;-72
2023/04/29 17:06:12;;;;;;;11.00;5.70;;;;;;;16.79;54.51;98692.00;223585;183;138087;-74
2023/04/29 17:11:17;;;;;;;14.60;5.60;;;;;;;16.70;54.61;98693.52;223597;183;147378;-72
2023/04/29 17:16:20;;;;;;;8.20;5.80;;;;;;;16.61;54.93;98697.10;223538;183;139312;-72
2023/04/29 17:21:24;;;;;;;12.10;6.00;;;;;;;16.52;55.01;98700.58;223579;183;137460;-72
2023/04/29 17:26:27;;;;;;;457.20;385.60;;;;;;;16.48;55.38;98709.06;223535;183;147547;-71
2023/04/29 17:31:43;;;;;;;49.00;35.80;;;;;;;16.59;56.14;98711.78;223574;182;138420;-68
2023/04/29 17:36:47;;;;;;;19.50;14.10;;;;;;;17.19;55.86;98712.83;223585;183;137943;-71
2023/04/29 17:41:50;;;;;;;13.40;8.50;;;;;;;17.52;54.67;98714.54;223542;183;147780;-72
2023/04/29 17:46:53;;;;;;;15.00;8.70;;;;;;;17.44;54.10;98726.80;223587;183;139053;-72
2023/04/29 17:52:02;;;;;;;19.80;12.40;;;;;;;16.99;55.79;98739.27;223695;183;137545;-72
2023/04/29 17:57:07;;;;;;;22.30;14.60;;;;;;;16.69;57.16;98745.59;223580;183;147103;-73
2023/04/29 18:02:10;;;;;;;22.50;14.20;;;;;;;16.39;58.76;98738.65;223519;183;138848;-72
2023/04/29 18:07:13;;;;;;;22.80;15.50;;;;;;;16.11;60.28;98740.29;223640;183;138880;-73
2023/04/29 18:12:16;;;;;;;23.00;15.20;;;;;;;15.86;61.55;98735.54;223661;183;147602;-72
2023/04/29 18:17:20;;;;;;;23.30;14.80;;;;;;;15.66;62.73;98735.55;223517;183;138421;-70
2023/04/29 18:22:23;;;;;;;113.90;87.80;;;;;;;15.53;63.51;98738.10;223631;182;137663;-70
2023/04/29 18:27:26;;;;;;;28.30;20.00;;;;;;;15.65;64.33;98751.77;223535;183;147895;-73
2023/04/29 18:32:29;;;;;;;23.90;15.60;;;;;;;15.60;64.05;98755.02;223575;183;138520;-72
2023/04/29 18:37:33;;;;;;;17.80;14.80;;;;;;;15.49;64.56;98755.76;223565;182;137734;-73
2023/04/29 18:42:36;;;;;;;21.50;15.60;;;;;;;15.38;64.97;98763.21;223575;183;147175;-74
2023/04/29 18:47:39;;;;;;;20.30;15.00;;;;;;;15.28;65.18;98778.36;223549;183;138983;-73
2023/04/29 18:52:42;;;;;;;24.30;16.70;;;;;;;15.22;65.39;98818.88;223532;183;137593;-73
2023/04/29 18:57:45;;;;;;;159.50;130.00;;;;;;;15.20;65.63;98828.34;223587;183;147023;-72
2023/04/29 19:02:48;;;;;;;28.40;20.20;;;;;;;15.28;65.79;98831.40;223380;183;139101;-69
2023/04/29 19:07:52;;;;;;;21.60;14.40;;;;;;;15.31;65.51;98835.45;223691;183;137717;-68
2023/04/29 19:12:55;;;;;;;25.50;14.90;;;;;;;15.19;65.81;98830.93;223599;183;147671;-67
2023/04/29 19:17:58;;;;;;;20.40;14.30;;;;;;;15.08;66.38;98831.30;223639;183;138659;-68
2023/04/29 19:23:02;;;;;;;20.10;14.10;;;;;;;14.96;67.03;98833.39;223708;183;137249;-70
2023/04/29 19:28:07;;;;;;;22.30;13.50;;;;;;;14.86;67.44;98832.63;223658;183;146786;-67
2023/04/29 19:33:12;;;;;;;22.90;12.90;;;;;;;14.77;67.93;98828.23;223565;184;138362;-67
2023/04/29 19:38:16;;;;;;;14.30;10.00;;;;;;;14.72;68.30;98825.61;223603;183;137908;-64
2023/04/29 19:43:19;;;;;;;16.30;10.40;;;;;;;14.70;68.56;98823.40;223662;183;147090;-68
2023/04/29 19:48:22;;;;;;;15.90;11.50;;;;;;;14.73;68.69;98824.24;223612;183;138728;-67
2023/04/29 19:53:26;;;;;;;16.80;11.70;;;;;;;14.71;68.66;98819.46;223668;183;137086;-65
2023/04/29 19:58:29;;;;;;;17.40;11.20;;;;;;;14.66;68.82;98818.88;223597;183;147565;-67
2023/04/29 20:03:34;;;;;;;15.00;11.70;;;;;;;14.64;68.86;98814.25;223578;183;138549;-67
2023/04/29 20:08:38;;;;;;;16.20;12.10;;;;;;;14.61;69.04;98817.14;223701;183;137379;-66
2023/04/29 20:13:41;;;;;;;16.60;12.40;;;;;;;14.58;68.99;98819.90;223680;179;147109;-67
2023/04/29 20:18:44;;;;;;;16.50;12.80;;;;;;;14.58;69.14;98819.17;223578;183;138464;-68
2023/04/29 20:23:48;;;;;;;16.20;12.50;;;;;;;14.63;69.41;98813.30;223600;183;141527;-68
2023/04/29 20:28:51;;;;;;;16.50;12.00;;;;;;;14.63;69.19;98814.88;223621;184;147533;-68
2023/04/29 20:33:54;;;;;;;15.00;12.00;;;;;;;14.60;69.45;98805.80;223626;183;139408;-68
2023/04/29 20:38:57;;;;;;;16.40;10.80;;;;;;;14.54;69.52;98805.83;223651;183;138286;-67
2023/04/29 20:44:05;;;;;;;12.90;10.40;;;;;;;14.45;69.86;98807.01;223681;183;146882;-65
2023/04/29 20:49:13;;;;;;;17.60;10.70;;;;;;;14.44;70.00;98800.36;223637;183;138353;-66
2023/04/29 20:54:16;;;;;;;15.50;10.80;;;;;;;14.47;70.23;98802.98;223669;183;137932;-66
2023/04/29 20:59:19;;;;;;;17.10;12.20;;;;;;;14.50;70.30;98807.02;223667;183;147381;-69
2023/04/29 21:04:23;;;;;;;14.80;12.40;;;;;;;14.52;70.16;98812.23;223625;183;139064;-68
2023/04/29 21:09:26;;;;;;;17.20;13.30;;;;;;;14.52;70.04;98817.02;223666;184;137205;-69
2023/04/29 21:14:30;;;;;;;16.50;13.40;;;;;;;14.46;69.97;98817.10;223700;183;147083;-66
2023/04/29 21:19:36;;;;;;;17.20;11.70;;;;;;;14.40;70.48;98815.30;223585;183;138286;-67
2023/04/29 21:24:40;;;;;;;12.30;9.70;;;;;;;14.39;70.35;98813.58;223582;183;138557;-67
2023/04/29 21:29:43;;;;;;;13.10;10.40;;;;;;;14.37;70.17;98811.61;223623;183;147982;-69
2023/04/29 21:34:47;;;;;;;14.10;10.50;;;;;;;14.37;70.25;98813.23;223637;183;138544;-66
2023/04/29 21:39:50;;;;;;;13.80;10.30;;;;;;;14.38;70.31;98815.95;223642;182;137136;-66
2023/04/29 21:44:56;;;;;;;11.30;9.80;;;;;;;14.35;70.16;98816.76;223652;183;147429;-65
2023/04/29 21:50:00;;;;;;;13.20;11.00;;;;;;;14.32;70.38;98821.96;223700;183;138950;-67
2023/04/29 21:55:03;;;;;;;11.30;9.10;;;;;;;14.30;70.59;98823.64;223724;183;137196;-69
2023/04/29 22:00:18;;;;;;;11.60;9.20;;;;;;;14.26;70.61;98827.90;223633;182;154539;-70
2023/04/29 22:05:21;;;;;;;12.10;9.20;;;;;;;14.28;70.56;98829.49;223645;183;138233;-65
2023/04/29 22:10:24;;;;;;;13.40;10.00;;;;;;;14.35;70.28;98830.84;223734;183;137610;-65
2023/04/29 22:15:27;;;;;;;15.60;12.30;;;;;;;14.39;70.47;98834.30;223533;182;146819;-66
2023/04/29 22:20:31;;;;;;;16.30;12.00;;;;;;;14.35;70.83;98834.79;223586;183;138712;-71
2023/04/29 22:25:34;;;;;;;15.00;11.90;;;;;;;14.34;70.83;98837.23;223659;183;140491;-69
2023/04/29 22:30:37;;;;;;;14.90;12.30;;;;;;;14.33;70.66;98829.95;223620;183;146933;-70
2023/04/29 22:35:41;;;;;;;17.90;13.90;;;;;;;14.37;70.77;98831.55;223692;183;138431;-69
2023/04/29 22:40:49;;;;;;;16.70;14.30;;;;;;;14.47;70.80;98827.93;223680;183;139378;-68
2023/04/29 22:45:53;;;;;;;18.50;16.00;;;;;;;14.54;70.74;98831.19;223616;183;147147;-64
2023/04/29 22:51:01;;;;;;;19.30;15.70;;;;;;;14.57;70.70;98832.55;223564;183;138524;-63
2023/04/29 22:56:05;;;;;;;19.80;16.40;;;;;;;14.52;70.79;98836.67;223721;183;138090;-64
2023/04/29 23:01:08;;;;;;;18.80;16.40;;;;;;;14.49;71.12;98838.19;223554;183;146931;-66
2023/04/29 23:06:13;;;;;;;21.30;16.20;;;;;;;14.45;71.32;98837.02;223618;183;138202;-65
2023/04/29 23:11:17;;;;;;;21.20;16.80;;;;;;;14.45;71.46;98840.79;223626;183;138192;-69
2023/04/29 23:16:20;;;;;;;21.20;17.90;;;;;;;14.49;71.57;98840.29;223647;183;147240;-70
2023/04/29 23:21:25;;;;;;;19.20;16.80;;;;;;;14.49;71.53;98835.27;223661;183;139630;-72
2023/04/29 23:26:29;;;;;;;21.10;17.10;;;;;;;14.49;71.42;98833.48;223578;181;136909;-73